sensor_id;sensor_type;location;lat;lon;timestamp;pressure;altitude;pressure_sealevel;temperature;humidity
85016;BME280;75339;50.216;20.512;2024-02-04T00:00:00;98684.08;;;6.61;84.77
85016;BME280;75339;50.216;20.512;2024-02-04T00:02:27;98675.70;;;6.60;84.91
85016;BME280;75339;50.216;20.512;2024-02-04T00:04:54;98684.27;;;6.60;84.94
85016;BME280;75339;50.216;20.512;2024-02-04T00:07:21;98678.55;;;6.57;85.16
85016;BME280;75339;50.216;20.512;2024-02-04T00:09:47;98677.79;;;6.52;85.30
85016;BME280;75339;50.216;20.512;2024-02-04T00:12:14;98681.33;;;6.48;85.58
85016;BME280;75339;50.216;20.512;2024-02-04T00:14:41;98674.52;;;6.48;85.47
85016;BME280;75339;50.216;20.512;2024-02-04T00:17:07;98670.70;;;6.45;85.57
85016;BME280;75339;50.216;20.512;2024-02-04T00:19:34;98665.33;;;6.42;85.65
85016;BME280;75339;50.216;20.512;2024-02-04T00:22:01;98666.77;;;6.39;85.76
85016;BME280;75339;50.216;20.512;2024-02-04T00:24:27;98674.70;;;6.36;85.91
85016;BME280;75339;50.216;20.512;2024-02-04T00:26:54;98674.88;;;6.35;86.23
85016;BME280;75339;50.216;20.512;2024-02-04T00:29:21;98674.18;;;6.34;86.46
85016;BME280;75339;50.216;20.512;2024-02-04T00:31:47;98663.17;;;6.33;86.33
85016;BME280;75339;50.216;20.512;2024-02-04T00:34:14;98657.58;;;6.33;86.35
85016;BME280;75339;50.216;20.512;2024-02-04T00:36:40;98649.36;;;6.33;86.36
85016;BME280;75339;50.216;20.512;2024-02-04T00:39:07;98647.80;;;6.33;86.33
85016;BME280;75339;50.216;20.512;2024-02-04T00:41:34;98640.64;;;6.31;86.06
85016;BME280;75339;50.216;20.512;2024-02-04T00:44:01;98636.61;;;6.32;86.11
85016;BME280;75339;50.216;20.512;2024-02-04T00:46:28;98640.30;;;6.31;85.88
85016;BME280;75339;50.216;20.512;2024-02-04T00:48:55;98640.45;;;6.33;85.72
85016;BME280;75339;50.216;20.512;2024-02-04T00:51:22;98643.36;;;6.37;85.59
85016;BME280;75339;50.216;20.512;2024-02-04T00:53:49;98641.71;;;6.41;85.09
85016;BME280;75339;50.216;20.512;2024-02-04T00:56:15;98639.06;;;6.43;85.06
85016;BME280;75339;50.216;20.512;2024-02-04T00:58:42;98640.02;;;6.50;84.61
85016;BME280;75339;50.216;20.512;2024-02-04T01:01:08;98639.33;;;6.59;84.33
85016;BME280;75339;50.216;20.512;2024-02-04T01:03:35;98627.68;;;6.64;83.85
85016;BME280;75339;50.216;20.512;2024-02-04T01:06:02;98620.96;;;6.69;83.49
85016;BME280;75339;50.216;20.512;2024-02-04T01:08:30;98626.17;;;6.70;83.29
85016;BME280;75339;50.216;20.512;2024-02-04T01:10:56;98623.52;;;6.73;83.21
85016;BME280;75339;50.216;20.512;2024-02-04T01:13:23;98627.86;;;6.74;83.11
85016;BME280;75339;50.216;20.512;2024-02-04T01:15:50;98632.92;;;6.76;82.88
85016;BME280;75339;50.216;20.512;2024-02-04T01:18:16;98634.70;;;6.74;82.80
85016;BME280;75339;50.216;20.512;2024-02-04T01:20:43;98646.05;;;6.75;82.90
85016;BME280;75339;50.216;20.512;2024-02-04T01:23:09;98657.64;;;6.72;82.83
85016;BME280;75339;50.216;20.512;2024-02-04T01:25:36;98659.23;;;6.61;83.15
85016;BME280;75339;50.216;20.512;2024-02-04T01:28:03;98635.48;;;6.50;83.96
85016;BME280;75339;50.216;20.512;2024-02-04T01:30:30;98635.21;;;6.44;84.07
85016;BME280;75339;50.216;20.512;2024-02-04T01:32:57;98627.73;;;6.40;84.74
85016;BME280;75339;50.216;20.512;2024-02-04T01:35:24;98624.21;;;6.42;84.78
85016;BME280;75339;50.216;20.512;2024-02-04T01:37:51;98635.59;;;6.42;84.87
85016;BME280;75339;50.216;20.512;2024-02-04T01:40:17;98632.95;;;6.42;85.11
85016;BME280;75339;50.216;20.512;2024-02-04T01:42:44;98620.73;;;6.41;85.37
85016;BME280;75339;50.216;20.512;2024-02-04T01:45:11;98611.88;;;6.36;85.70
85016;BME280;75339;50.216;20.512;2024-02-04T01:47:38;98610.30;;;6.36;85.54
85016;BME280;75339;50.216;20.512;2024-02-04T01:50:05;98608.23;;;6.35;85.52
85016;BME280;75339;50.216;20.512;2024-02-04T01:52:33;98612.61;;;6.34;85.56
85016;BME280;75339;50.216;20.512;2024-02-04T01:55:03;98610.02;;;6.33;85.59
85016;BME280;75339;50.216;20.512;2024-02-04T01:57:32;98617.88;;;6.33;85.69
85016;BME280;75339;50.216;20.512;2024-02-04T01:59:59;98623.27;;;6.35;85.64
85016;BME280;75339;50.216;20.512;2024-02-04T02:02:26;98626.88;;;6.39;85.34
85016;BME280;75339;50.216;20.512;2024-02-04T02:04:52;98621.41;;;6.42;85.18
85016;BME280;75339;50.216;20.512;2024-02-04T02:07:19;98623.08;;;6.48;84.72
85016;BME280;75339;50.216;20.512;2024-02-04T02:09:50;98623.21;;;6.50;84.57
85016;BME280;75339;50.216;20.512;2024-02-04T02:12:24;98624.91;;;6.54;84.04
85016;BME280;75339;50.216;20.512;2024-02-04T02:14:59;98631.36;;;6.55;83.64
85016;BME280;75339;50.216;20.512;2024-02-04T02:17:37;98639.77;;;6.55;83.28
85016;BME280;75339;50.216;20.512;2024-02-04T02:20:16;98634.09;;;6.58;82.89
85016;BME280;75339;50.216;20.512;2024-02-04T02:23:06;98637.48;;;6.54;82.71
85016;BME280;75339;50.216;20.512;2024-02-04T02:25:36;98630.30;;;6.44;83.11
85016;BME280;75339;50.216;20.512;2024-02-04T02:28:03;98618.81;;;6.41;82.98
85016;BME280;75339;50.216;20.512;2024-02-04T02:30:29;98615.09;;;6.43;82.23
85016;BME280;75339;50.216;20.512;2024-02-04T02:32:56;98629.09;;;6.43;82.41
85016;BME280;75339;50.216;20.512;2024-02-04T02:35:23;98629.06;;;6.45;82.51
85016;BME280;75339;50.216;20.512;2024-02-04T02:40:53;98611.14;;;6.51;82.20
85016;BME280;75339;50.216;20.512;2024-02-04T02:43:22;98611.42;;;6.54;81.14
85016;BME280;75339;50.216;20.512;2024-02-04T02:45:50;98612.28;;;6.55;81.25
85016;BME280;75339;50.216;20.512;2024-02-04T02:48:17;98610.39;;;6.54;80.92
85016;BME280;75339;50.216;20.512;2024-02-04T02:50:44;98611.91;;;6.56;80.02
85016;BME280;75339;50.216;20.512;2024-02-04T02:53:11;98600.15;;;6.57;79.40
85016;BME280;75339;50.216;20.512;2024-02-04T02:55:37;98605.58;;;6.58;79.58
85016;BME280;75339;50.216;20.512;2024-02-04T02:58:04;98597.06;;;6.55;79.05
85016;BME280;75339;50.216;20.512;2024-02-04T03:00:30;98582.89;;;6.56;78.53
85016;BME280;75339;50.216;20.512;2024-02-04T03:02:57;98589.21;;;6.63;77.94
85016;BME280;75339;50.216;20.512;2024-02-04T03:05:24;98583.41;;;6.64;77.34
85016;BME280;75339;50.216;20.512;2024-02-04T03:07:50;98586.32;;;6.68;77.02
85016;BME280;75339;50.216;20.512;2024-02-04T03:10:17;98594.31;;;6.71;76.69
85016;BME280;75339;50.216;20.512;2024-02-04T03:12:44;98595.17;;;6.71;76.27
85016;BME280;75339;50.216;20.512;2024-02-04T03:15:10;98603.64;;;6.79;75.76
85016;BME280;75339;50.216;20.512;2024-02-04T03:17:37;98611.23;;;6.84;75.86
85016;BME280;75339;50.216;20.512;2024-02-04T03:20:04;98599.45;;;6.86;75.20
85016;BME280;75339;50.216;20.512;2024-02-04T03:22:31;98598.01;;;6.89;75.41
85016;BME280;75339;50.216;20.512;2024-02-04T03:24:57;98597.68;;;6.87;75.80
85016;BME280;75339;50.216;20.512;2024-02-04T03:27:24;98593.79;;;6.90;75.98
85016;BME280;75339;50.216;20.512;2024-02-04T03:29:50;98587.25;;;6.93;75.73
85016;BME280;75339;50.216;20.512;2024-02-04T03:32:17;98583.55;;;6.94;75.33
85016;BME280;75339;50.216;20.512;2024-02-04T03:34:44;98591.42;;;6.85;75.97
85016;BME280;75339;50.216;20.512;2024-02-04T03:37:10;98594.34;;;6.80;75.84
85016;BME280;75339;50.216;20.512;2024-02-04T03:39:37;98594.02;;;6.78;76.33
85016;BME280;75339;50.216;20.512;2024-02-04T03:42:04;98588.92;;;6.80;76.26
85016;BME280;75339;50.216;20.512;2024-02-04T03:44:30;98578.94;;;6.80;76.34
85016;BME280;75339;50.216;20.512;2024-02-04T03:46:57;98574.40;;;6.79;75.94
85016;BME280;75339;50.216;20.512;2024-02-04T03:49:24;98559.23;;;6.75;75.80
85016;BME280;75339;50.216;20.512;2024-02-04T03:51:50;98565.92;;;6.74;75.47
85016;BME280;75339;50.216;20.512;2024-02-04T03:54:17;98565.70;;;6.76;74.82
85016;BME280;75339;50.216;20.512;2024-02-04T03:56:45;98570.13;;;6.73;74.92
85016;BME280;75339;50.216;20.512;2024-02-04T03:59:12;98571.20;;;6.72;74.78
85016;BME280;75339;50.216;20.512;2024-02-04T04:01:38;98576.13;;;6.70;74.71
85016;BME280;75339;50.216;20.512;2024-02-04T04:04:05;98575.89;;;6.64;75.05
85016;BME280;75339;50.216;20.512;2024-02-04T04:06:32;98584.23;;;6.58;75.32
85016;BME280;75339;50.216;20.512;2024-02-04T04:08:58;98585.76;;;6.52;75.68
85016;BME280;75339;50.216;20.512;2024-02-04T04:11:25;98579.33;;;6.49;75.88
85016;BME280;75339;50.216;20.512;2024-02-04T04:13:52;98579.16;;;6.49;75.96
85016;BME280;75339;50.216;20.512;2024-02-04T04:16:22;98557.48;;;6.27;76.18
85016;BME280;75339;50.216;20.512;2024-02-04T04:18:48;98568.83;;;6.27;76.35
85016;BME280;75339;50.216;20.512;2024-02-04T04:21:16;98586.38;;;6.34;76.63
85016;BME280;75339;50.216;20.512;2024-02-04T04:23:43;98591.43;;;6.35;76.57
85016;BME280;75339;50.216;20.512;2024-02-04T04:26:09;98586.30;;;6.39;76.68
85016;BME280;75339;50.216;20.512;2024-02-04T04:28:36;98589.77;;;6.42;76.63
85016;BME280;75339;50.216;20.512;2024-02-04T04:31:03;98591.88;;;6.41;76.88
85016;BME280;75339;50.216;20.512;2024-02-04T04:33:29;98595.54;;;6.41;77.09
85016;BME280;75339;50.216;20.512;2024-02-04T04:35:56;98592.23;;;6.39;77.06
85016;BME280;75339;50.216;20.512;2024-02-04T04:38:22;98597.70;;;6.37;76.79
85016;BME280;75339;50.216;20.512;2024-02-04T04:40:49;98607.88;;;6.35;76.93
85016;BME280;75339;50.216;20.512;2024-02-04T04:43:16;98593.08;;;6.31;76.67
85016;BME280;75339;50.216;20.512;2024-02-04T04:45:42;98599.00;;;6.32;76.56
85016;BME280;75339;50.216;20.512;2024-02-04T04:48:09;98602.52;;;6.31;76.55
85016;BME280;75339;50.216;20.512;2024-02-04T04:50:36;98604.17;;;6.28;77.08
85016;BME280;75339;50.216;20.512;2024-02-04T04:53:02;98594.98;;;6.23;77.07
85016;BME280;75339;50.216;20.512;2024-02-04T04:55:29;98599.36;;;6.23;77.00
85016;BME280;75339;50.216;20.512;2024-02-04T04:57:55;98586.80;;;6.21;76.83
85016;BME280;75339;50.216;20.512;2024-02-04T05:00:22;98588.92;;;6.19;76.83
85016;BME280;75339;50.216;20.512;2024-02-04T05:02:49;98584.26;;;6.15;77.14
85016;BME280;75339;50.216;20.512;2024-02-04T05:05:15;98584.66;;;6.11;77.61
85016;BME280;75339;50.216;20.512;2024-02-04T05:07:42;98578.17;;;6.13;77.69
85016;BME280;75339;50.216;20.512;2024-02-04T05:10:09;98579.73;;;6.14;77.40
85016;BME280;75339;50.216;20.512;2024-02-04T05:12:36;98574.84;;;6.13;77.22
85016;BME280;75339;50.216;20.512;2024-02-04T05:15:03;98585.52;;;6.13;77.40
85016;BME280;75339;50.216;20.512;2024-02-04T05:17:30;98590.99;;;6.09;77.39
85016;BME280;75339;50.216;20.512;2024-02-04T05:19:58;98599.45;;;6.04;77.71
85016;BME280;75339;50.216;20.512;2024-02-04T05:22:24;98600.69;;;6.04;77.55
85016;BME280;75339;50.216;20.512;2024-02-04T05:24:51;98608.86;;;6.06;77.20
85016;BME280;75339;50.216;20.512;2024-02-04T05:27:18;98607.98;;;6.06;77.30
85016;BME280;75339;50.216;20.512;2024-02-04T05:29:44;98601.39;;;6.04;77.08
85016;BME280;75339;50.216;20.512;2024-02-04T05:32:11;98591.77;;;6.04;77.02
85016;BME280;75339;50.216;20.512;2024-02-04T05:34:38;98589.81;;;6.06;76.89
85016;BME280;75339;50.216;20.512;2024-02-04T05:37:04;98597.15;;;6.06;76.67
85016;BME280;75339;50.216;20.512;2024-02-04T05:39:31;98604.30;;;6.07;76.76
85016;BME280;75339;50.216;20.512;2024-02-04T05:41:57;98598.02;;;6.06;76.99
85016;BME280;75339;50.216;20.512;2024-02-04T05:44:24;98604.86;;;6.05;77.24
85016;BME280;75339;50.216;20.512;2024-02-04T05:46:51;98599.13;;;6.03;77.31
85016;BME280;75339;50.216;20.512;2024-02-04T05:49:17;98596.65;;;6.04;77.21
85016;BME280;75339;50.216;20.512;2024-02-04T05:51:44;98587.45;;;6.01;77.25
85016;BME280;75339;50.216;20.512;2024-02-04T05:54:11;98592.51;;;6.01;76.91
85016;BME280;75339;50.216;20.512;2024-02-04T05:56:38;98599.80;;;5.95;76.97
85016;BME280;75339;50.216;20.512;2024-02-04T05:59:05;98598.65;;;5.89;77.50
85016;BME280;75339;50.216;20.512;2024-02-04T06:01:31;98602.15;;;5.86;77.71
85016;BME280;75339;50.216;20.512;2024-02-04T06:03:59;98603.70;;;5.89;77.38
85016;BME280;75339;50.216;20.512;2024-02-04T06:06:26;98603.95;;;5.98;76.49
85016;BME280;75339;50.216;20.512;2024-02-04T06:08:52;98615.73;;;6.03;76.08
85016;BME280;75339;50.216;20.512;2024-02-04T06:11:19;98624.41;;;6.07;75.55
85016;BME280;75339;50.216;20.512;2024-02-04T06:13:45;98633.30;;;6.09;75.54
85016;BME280;75339;50.216;20.512;2024-02-04T06:16:12;98643.13;;;6.07;75.79
85016;BME280;75339;50.216;20.512;2024-02-04T06:18:39;98655.21;;;6.05;76.09
85016;BME280;75339;50.216;20.512;2024-02-04T06:21:06;98655.09;;;6.02;76.53
85016;BME280;75339;50.216;20.512;2024-02-04T06:23:33;98655.95;;;5.91;77.05
85016;BME280;75339;50.216;20.512;2024-02-04T06:26:00;98662.84;;;5.83;77.51
85016;BME280;75339;50.216;20.512;2024-02-04T06:28:27;98662.40;;;5.75;78.04
85016;BME280;75339;50.216;20.512;2024-02-04T06:30:54;98657.73;;;5.73;78.33
85016;BME280;75339;50.216;20.512;2024-02-04T06:33:20;98659.63;;;5.75;78.34
85016;BME280;75339;50.216;20.512;2024-02-04T06:35:48;98662.40;;;5.75;78.78
85016;BME280;75339;50.216;20.512;2024-02-04T06:38:15;98662.38;;;5.77;78.85
85016;BME280;75339;50.216;20.512;2024-02-04T06:40:42;98663.60;;;5.78;79.11
85016;BME280;75339;50.216;20.512;2024-02-04T06:43:08;98653.63;;;5.79;79.22
85016;BME280;75339;50.216;20.512;2024-02-04T06:45:35;98659.21;;;5.79;79.46
85016;BME280;75339;50.216;20.512;2024-02-04T06:48:01;98664.74;;;5.85;79.75
85016;BME280;75339;50.216;20.512;2024-02-04T06:50:29;98666.80;;;5.91;79.64
85016;BME280;75339;50.216;20.512;2024-02-04T06:52:55;98671.98;;;5.96;79.37
85016;BME280;75339;50.216;20.512;2024-02-04T06:55:22;98637.05;;;5.81;79.51
85016;BME280;75339;50.216;20.512;2024-02-04T06:57:48;98663.37;;;5.99;79.28
85016;BME280;75339;50.216;20.512;2024-02-04T07:00:15;98666.50;;;6.00;79.28
85016;BME280;75339;50.216;20.512;2024-02-04T07:02:42;98659.50;;;6.00;79.21
85016;BME280;75339;50.216;20.512;2024-02-04T07:05:09;98650.29;;;6.07;77.45
85016;BME280;75339;50.216;20.512;2024-02-04T07:07:37;98660.04;;;6.09;77.66
85016;BME280;75339;50.216;20.512;2024-02-04T07:10:04;98654.27;;;6.09;77.37
85016;BME280;75339;50.216;20.512;2024-02-04T07:12:30;98653.70;;;6.13;76.66
85016;BME280;75339;50.216;20.512;2024-02-04T07:14:57;98653.86;;;6.15;76.53
85016;BME280;75339;50.216;20.512;2024-02-04T07:17:25;98655.02;;;6.19;76.13
85016;BME280;75339;50.216;20.512;2024-02-04T07:19:51;98654.96;;;6.23;76.12
85016;BME280;75339;50.216;20.512;2024-02-04T07:22:18;98655.80;;;6.25;76.03
85016;BME280;75339;50.216;20.512;2024-02-04T07:24:44;98643.89;;;6.15;76.39
85016;BME280;75339;50.216;20.512;2024-02-04T07:27:11;98668.67;;;6.29;76.26
85016;BME280;75339;50.216;20.512;2024-02-04T07:29:38;98664.80;;;6.30;76.47
85016;BME280;75339;50.216;20.512;2024-02-04T07:32:04;98663.92;;;6.31;76.56
85016;BME280;75339;50.216;20.512;2024-02-04T07:34:31;98662.14;;;6.32;76.49
85016;BME280;75339;50.216;20.512;2024-02-04T07:36:58;98651.95;;;6.35;76.00
85016;BME280;75339;50.216;20.512;2024-02-04T07:39:24;98653.79;;;6.41;76.01
85016;BME280;75339;50.216;20.512;2024-02-04T07:41:51;98651.09;;;6.46;75.56
85016;BME280;75339;50.216;20.512;2024-02-04T07:44:20;98647.53;;;6.51;74.56
85016;BME280;75339;50.216;20.512;2024-02-04T07:46:46;98643.84;;;6.52;74.45
85016;BME280;75339;50.216;20.512;2024-02-04T07:49:13;98650.29;;;6.53;74.23
85016;BME280;75339;50.216;20.512;2024-02-04T07:51:39;98630.87;;;6.62;73.37
85016;BME280;75339;50.216;20.512;2024-02-04T07:54:06;98643.91;;;6.67;72.03
85016;BME280;75339;50.216;20.512;2024-02-04T07:56:33;98635.36;;;6.66;71.02
85016;BME280;75339;50.216;20.512;2024-02-04T07:58:59;98637.00;;;6.62;72.08
85016;BME280;75339;50.216;20.512;2024-02-04T08:01:26;98643.36;;;6.58;72.14
85016;BME280;75339;50.216;20.512;2024-02-04T08:03:53;98649.33;;;6.57;71.63
85016;BME280;75339;50.216;20.512;2024-02-04T08:06:20;98640.80;;;6.65;70.83
85016;BME280;75339;50.216;20.512;2024-02-04T08:08:46;98637.75;;;6.69;70.35
85016;BME280;75339;50.216;20.512;2024-02-04T08:11:17;98644.30;;;6.65;70.36
85016;BME280;75339;50.216;20.512;2024-02-04T08:13:44;98648.35;;;6.63;70.56
85016;BME280;75339;50.216;20.512;2024-02-04T08:16:11;98651.17;;;6.62;70.62
85016;BME280;75339;50.216;20.512;2024-02-04T08:18:39;98652.38;;;6.74;69.93
85016;BME280;75339;50.216;20.512;2024-02-04T08:21:06;98653.94;;;6.84;69.55
85016;BME280;75339;50.216;20.512;2024-02-04T08:23:32;98649.59;;;6.83;68.88
85016;BME280;75339;50.216;20.512;2024-02-04T08:25:59;98660.67;;;6.81;69.62
85016;BME280;75339;50.216;20.512;2024-02-04T08:28:26;98664.20;;;6.79;68.84
85016;BME280;75339;50.216;20.512;2024-02-04T08:30:55;98671.94;;;6.76;69.10
85016;BME280;75339;50.216;20.512;2024-02-04T08:33:22;98675.11;;;6.75;70.38
85016;BME280;75339;50.216;20.512;2024-02-04T08:35:49;98663.06;;;6.73;69.11
85016;BME280;75339;50.216;20.512;2024-02-04T08:38:15;98678.42;;;6.76;67.46
85016;BME280;75339;50.216;20.512;2024-02-04T08:40:42;98691.71;;;6.77;68.67
85016;BME280;75339;50.216;20.512;2024-02-04T08:43:08;98681.02;;;6.78;69.28
85016;BME280;75339;50.216;20.512;2024-02-04T08:45:35;98676.61;;;6.79;68.33
85016;BME280;75339;50.216;20.512;2024-02-04T08:48:02;98648.14;;;6.67;68.13
85016;BME280;75339;50.216;20.512;2024-02-04T08:50:29;98666.08;;;6.82;68.45
85016;BME280;75339;50.216;20.512;2024-02-04T08:52:55;98662.23;;;6.82;68.02
85016;BME280;75339;50.216;20.512;2024-02-04T08:55:22;98657.23;;;6.86;68.62
85016;BME280;75339;50.216;20.512;2024-02-04T08:57:49;98648.03;;;6.91;68.19
85016;BME280;75339;50.216;20.512;2024-02-04T09:00:16;98654.95;;;6.86;68.41
85016;BME280;75339;50.216;20.512;2024-02-04T09:02:43;98654.78;;;6.86;67.99
85016;BME280;75339;50.216;20.512;2024-02-04T09:05:09;98660.37;;;6.86;67.28
85016;BME280;75339;50.216;20.512;2024-02-04T09:07:36;98659.08;;;6.82;67.43
85016;BME280;75339;50.216;20.512;2024-02-04T09:10:03;98654.77;;;6.77;67.11
85016;BME280;75339;50.216;20.512;2024-02-04T09:12:29;98661.58;;;6.78;66.79
85016;BME280;75339;50.216;20.512;2024-02-04T09:14:56;98669.96;;;6.79;67.10
85016;BME280;75339;50.216;20.512;2024-02-04T09:17:23;98672.05;;;6.81;66.70
85016;BME280;75339;50.216;20.512;2024-02-04T09:19:50;98683.95;;;6.81;66.17
85016;BME280;75339;50.216;20.512;2024-02-04T09:22:16;98686.38;;;6.82;66.51
85016;BME280;75339;50.216;20.512;2024-02-04T09:24:44;98700.27;;;6.88;67.30
85016;BME280;75339;50.216;20.512;2024-02-04T09:27:10;98691.08;;;6.93;66.80
85016;BME280;75339;50.216;20.512;2024-02-04T09:29:37;98681.20;;;6.96;64.76
85016;BME280;75339;50.216;20.512;2024-02-04T09:32:04;98676.91;;;7.02;64.91
85016;BME280;75339;50.216;20.512;2024-02-04T09:34:31;98687.11;;;7.10;65.04
85016;BME280;75339;50.216;20.512;2024-02-04T09:36:57;98684.89;;;7.15;64.63
85016;BME280;75339;50.216;20.512;2024-02-04T09:39:24;98688.08;;;7.14;64.38
85016;BME280;75339;50.216;20.512;2024-02-04T09:41:50;98695.85;;;7.01;64.83
85016;BME280;75339;50.216;20.512;2024-02-04T09:44:17;98694.41;;;7.02;65.51
85016;BME280;75339;50.216;20.512;2024-02-04T09:46:45;98692.23;;;7.07;64.63
85016;BME280;75339;50.216;20.512;2024-02-04T09:49:12;98678.66;;;7.12;63.72
85016;BME280;75339;50.216;20.512;2024-02-04T09:51:40;98683.60;;;7.18;63.41
85016;BME280;75339;50.216;20.512;2024-02-04T09:54:09;98683.52;;;7.33;63.54
85016;BME280;75339;50.216;20.512;2024-02-04T09:56:37;98655.11;;;7.51;61.55
85016;BME280;75339;50.216;20.512;2024-02-04T09:59:04;98677.37;;;7.51;61.95
85016;BME280;75339;50.216;20.512;2024-02-04T10:01:31;98682.02;;;7.56;62.53
85016;BME280;75339;50.216;20.512;2024-02-04T10:03:58;98681.19;;;7.62;63.85
85016;BME280;75339;50.216;20.512;2024-02-04T10:06:26;98677.91;;;7.75;63.63
85016;BME280;75339;50.216;20.512;2024-02-04T10:08:53;98656.64;;;7.87;61.80
85016;BME280;75339;50.216;20.512;2024-02-04T10:11:19;98658.03;;;8.03;61.55
85016;BME280;75339;50.216;20.512;2024-02-04T10:13:48;98629.33;;;8.08;61.40
85016;BME280;75339;50.216;20.512;2024-02-04T10:16:16;98632.98;;;8.24;61.19
85016;BME280;75339;50.216;20.512;2024-02-04T10:18:47;98650.23;;;8.45;60.51
85016;BME280;75339;50.216;20.512;2024-02-04T10:21:16;98668.94;;;8.70;61.46
85016;BME280;75339;50.216;20.512;2024-02-04T10:23:43;98659.54;;;8.60;59.92
85016;BME280;75339;50.216;20.512;2024-02-04T10:26:10;98650.31;;;8.19;60.40
85016;BME280;75339;50.216;20.512;2024-02-04T10:28:38;98653.36;;;7.84;61.21
85016;BME280;75339;50.216;20.512;2024-02-04T10:31:04;98652.58;;;7.56;62.24
85016;BME280;75339;50.216;20.512;2024-02-04T10:33:31;98654.16;;;7.38;62.29
85016;BME280;75339;50.216;20.512;2024-02-04T10:35:58;98649.92;;;7.31;62.80
85016;BME280;75339;50.216;20.512;2024-02-04T10:38:24;98638.93;;;7.29;62.97
85016;BME280;75339;50.216;20.512;2024-02-04T10:40:53;98641.67;;;7.32;63.96
85016;BME280;75339;50.216;20.512;2024-02-04T10:43:23;98625.14;;;7.35;64.04
85016;BME280;75339;50.216;20.512;2024-02-04T10:45:54;98614.84;;;7.41;63.49
85016;BME280;75339;50.216;20.512;2024-02-04T10:48:25;98607.35;;;7.56;62.92
85016;BME280;75339;50.216;20.512;2024-02-04T10:50:55;98620.79;;;7.50;63.07
85016;BME280;75339;50.216;20.512;2024-02-04T10:53:24;98611.34;;;7.33;62.98
85016;BME280;75339;50.216;20.512;2024-02-04T10:55:55;98599.45;;;7.22;61.83
85016;BME280;75339;50.216;20.512;2024-02-04T10:58:26;98606.83;;;7.13;62.77
85016;BME280;75339;50.216;20.512;2024-02-04T11:00:54;98609.11;;;7.12;62.62
85016;BME280;75339;50.216;20.512;2024-02-04T11:03:21;98611.75;;;7.21;62.48
85016;BME280;75339;50.216;20.512;2024-02-04T11:05:49;98600.67;;;7.32;62.28
85016;BME280;75339;50.216;20.512;2024-02-04T11:08:18;98598.85;;;7.35;62.46
85016;BME280;75339;50.216;20.512;2024-02-04T11:10:45;98601.67;;;7.50;63.06
85016;BME280;75339;50.216;20.512;2024-02-04T11:13:12;98594.02;;;7.80;62.38
85016;BME280;75339;50.216;20.512;2024-02-04T11:15:40;98586.37;;;7.86;60.90
85016;BME280;75339;50.216;20.512;2024-02-04T11:26:35;98584.68;;;7.97;59.10
85016;BME280;75339;50.216;20.512;2024-02-04T11:29:07;98587.36;;;8.33;59.55
85016;BME280;75339;50.216;20.512;2024-02-04T11:31:38;98589.62;;;8.61;59.16
85016;BME280;75339;50.216;20.512;2024-02-04T11:34:08;98582.25;;;8.81;58.47
85016;BME280;75339;50.216;20.512;2024-02-04T11:36:38;98574.33;;;8.95;57.91
85016;BME280;75339;50.216;20.512;2024-02-04T11:39:12;98563.79;;;9.20;56.75
85016;BME280;75339;50.216;20.512;2024-02-04T11:41:46;98547.20;;;9.34;55.01
85016;BME280;75339;50.216;20.512;2024-02-04T11:44:24;98540.45;;;9.26;55.75
85016;BME280;75339;50.216;20.512;2024-02-04T11:46:51;98540.21;;;9.02;55.58
85016;BME280;75339;50.216;20.512;2024-02-04T11:49:19;98540.21;;;8.64;57.00
85016;BME280;75339;50.216;20.512;2024-02-04T11:51:47;98540.23;;;8.43;56.73
85016;BME280;75339;50.216;20.512;2024-02-04T11:54:18;98538.10;;;8.22;58.20
85016;BME280;75339;50.216;20.512;2024-02-04T11:56:49;98533.90;;;8.08;58.08
85016;BME280;75339;50.216;20.512;2024-02-04T11:59:20;98543.20;;;8.15;59.01
85016;BME280;75339;50.216;20.512;2024-02-04T12:01:48;98531.39;;;8.24;59.57
85016;BME280;75339;50.216;20.512;2024-02-04T12:04:17;98522.67;;;8.16;58.81
85016;BME280;75339;50.216;20.512;2024-02-04T12:06:44;98511.48;;;8.21;58.89
85016;BME280;75339;50.216;20.512;2024-02-04T12:09:11;98519.18;;;8.21;59.73
85016;BME280;75339;50.216;20.512;2024-02-04T12:11:39;98510.36;;;8.31;59.80
85016;BME280;75339;50.216;20.512;2024-02-04T12:14:07;98496.84;;;8.45;60.03
85016;BME280;75339;50.216;20.512;2024-02-04T12:16:33;98493.98;;;8.79;59.34
85016;BME280;75339;50.216;20.512;2024-02-04T12:19:02;98486.30;;;9.02;59.07
85016;BME280;75339;50.216;20.512;2024-02-04T12:21:32;98484.70;;;9.15;59.60
85016;BME280;75339;50.216;20.512;2024-02-04T12:23:59;98469.06;;;9.21;59.27
85016;BME280;75339;50.216;20.512;2024-02-04T12:26:27;98468.80;;;9.24;59.13
85016;BME280;75339;50.216;20.512;2024-02-04T12:28:54;98449.48;;;9.35;58.55
85016;BME280;75339;50.216;20.512;2024-02-04T12:31:25;98447.10;;;9.26;58.82
85016;BME280;75339;50.216;20.512;2024-02-04T12:33:54;98443.44;;;9.08;59.28
85016;BME280;75339;50.216;20.512;2024-02-04T12:36:28;98442.65;;;8.93;59.54
85016;BME280;75339;50.216;20.512;2024-02-04T12:39:00;98442.14;;;8.93;60.05
85016;BME280;75339;50.216;20.512;2024-02-04T12:41:27;98427.45;;;8.67;60.14
85016;BME280;75339;50.216;20.512;2024-02-04T12:43:58;98417.68;;;8.39;60.95
85016;BME280;75339;50.216;20.512;2024-02-04T12:46:26;98428.56;;;8.19;61.77
85016;BME280;75339;50.216;20.512;2024-02-04T12:48:54;98426.66;;;8.04;62.55
85016;BME280;75339;50.216;20.512;2024-02-04T12:51:28;98444.33;;;7.93;63.00
85016;BME280;75339;50.216;20.512;2024-02-04T12:54:08;98435.40;;;7.86;62.88
85016;BME280;75339;50.216;20.512;2024-02-04T12:56:48;98424.88;;;7.79;63.05
85016;BME280;75339;50.216;20.512;2024-02-04T13:01:56;98443.50;;;7.63;63.61
85016;BME280;75339;50.216;20.512;2024-02-04T13:04:24;98424.05;;;7.48;64.65
85016;BME280;75339;50.216;20.512;2024-02-04T13:06:51;98426.85;;;7.11;66.54
85016;BME280;75339;50.216;20.512;2024-02-04T13:09:18;98421.97;;;6.77;69.02
85016;BME280;75339;50.216;20.512;2024-02-04T13:11:45;98436.95;;;6.55;70.40
85016;BME280;75339;50.216;20.512;2024-02-04T13:14:12;98432.44;;;6.45;71.57